Time;durP1;ratioP1;P1;durP2;ratioP2;P2;SDS_P1;SDS_P2;PMS_P1;PMS_P2;Temp;Humidity;BMP_temperature;BMP_pressure;BME280_temperature;BME280_humidity;BME280_pressure;Samples;Min_cycle;Max_cycle;Signal;HPM_P1;HPM_P2
2021/04/27 00:00:55;;;;;;;7.35;3.67;;;;;;;0.96;81.84;99804.41;1727781;81;21143;-77
2021/04/27 00:03:23;;;;;;;7.30;3.85;;;;;;;0.96;81.78;99807.11;1730978;83;21116;-73
2021/04/27 00:05:51;;;;;;;7.37;3.75;;;;;;;0.93;81.72;99809.38;1729952;81;21093;-74
2021/04/27 00:08:20;;;;;;;7.50;3.57;;;;;;;0.91;81.73;99806.06;1730947;82;21122;-75
2021/04/27 00:10:48;;;;;;;7.17;3.25;;;;;;;0.89;81.89;99806.23;1726115;81;21098;-74
2021/04/27 00:13:16;;;;;;;7.67;3.47;;;;;;;0.88;81.64;99803.75;1724321;83;21493;-73
2021/04/27 00:15:45;;;;;;;6.08;3.15;;;;;;;0.87;81.89;99822.28;1717375;81;21502;-74
2021/04/27 00:18:13;;;;;;;8.10;3.12;;;;;;;0.87;81.93;99822.28;1746120;81;21369;-73
2021/04/27 00:20:40;;;;;;;7.33;3.05;;;;;;;0.86;82.02;99819.29;1759871;80;21080;-71
2021/04/27 00:23:09;;;;;;;5.23;2.77;;;;;;;0.86;81.98;99824.68;1764190;80;21230;-74
2021/04/27 00:25:37;;;;;;;7.72;3.30;;;;;;;0.82;81.93;99822.04;1764751;80;21056;-73
2021/04/27 00:28:05;;;;;;;5.87;3.10;;;;;;;0.80;82.07;99814.67;1765076;80;21075;-73
2021/04/27 00:30:34;;;;;;;6.85;2.90;;;;;;;0.77;82.37;99816.41;1795977;80;21504;-73
2021/04/27 00:33:01;;;;;;;6.62;2.90;;;;;;;0.77;82.21;99817.76;1767088;80;21210;-73
2021/04/27 00:35:31;;;;;;;6.50;3.37;;;;;;;0.76;82.26;99814.77;1775717;80;21558;-73
2021/04/27 00:37:59;;;;;;;6.40;3.43;;;;;;;0.76;82.22;99821.50;1765421;80;21092;-72
2021/04/27 00:40:27;;;;;;;7.25;3.27;;;;;;;0.77;82.33;99821.80;1764571;81;21048;-75
2021/04/27 00:42:55;;;;;;;7.40;3.77;;;;;;;0.78;82.30;99820.78;1741103;81;21159;-73
2021/04/27 00:45:25;;;;;;;7.47;3.85;;;;;;;0.80;82.61;99817.37;1701260;83;21132;-73
2021/04/27 00:47:56;;;;;;;8.23;4.40;;;;;;;0.79;82.50;99817.04;1743031;81;21134;-75
2021/04/27 00:50:36;;;;;;;9.27;4.03;;;;;;;0.79;82.70;99815.19;1743089;82;21572;-75
2021/04/27 00:53:05;;;;;;;8.23;4.30;;;;;;;0.81;82.98;99815.01;1780562;79;21110;-73
2021/04/27 00:55:34;;;;;;;9.93;4.73;;;;;;;0.82;82.78;99818.00;1764754;80;21472;-75
2021/04/27 00:58:02;;;;;;;8.60;4.55;;;;;;;0.83;82.68;99803.52;1771094;80;21042;-73
2021/04/27 01:00:37;;;;;;;9.53;5.20;;;;;;;0.83;82.56;99810.25;1791207;80;21050;-74
2021/04/27 01:03:05;;;;;;;8.37;4.70;;;;;;;0.81;82.52;99803.69;1786706;79;21054;-75
2021/04/27 01:05:36;;;;;;;8.53;4.80;;;;;;;0.81;82.71;99806.38;1764443;81;21085;-75
2021/04/27 01:08:26;;;;;;;9.43;4.70;;;;;;;0.82;82.84;99804.53;1764518;80;21072;-74
2021/04/27 01:11:09;;;;;;;9.87;5.33;;;;;;;0.81;82.72;99806.92;1730915;83;21071;-74
2021/04/27 01:14:11;;;;;;;11.10;4.83;;;;;;;0.80;82.89;99802.55;1711853;82;21660;-71
2021/04/27 01:16:47;;;;;;;10.33;5.63;;;;;;;0.80;83.07;99791.27;1712815;82;21049;-70
2021/04/27 01:19:18;;;;;;;9.53;5.23;;;;;;;0.78;83.04;99796.54;1712074;82;21076;-70
2021/04/27 01:21:48;;;;;;;10.93;5.20;;;;;;;0.77;83.14;99801.59;1730382;81;21079;-70
2021/04/27 01:24:35;;;;;;;11.48;6.00;;;;;;;0.77;83.40;99801.09;1712096;82;21026;-75
2021/04/27 01:27:04;;;;;;;9.20;5.10;;;;;;;0.77;83.36;99800.25;1730883;82;21183;-75
2021/04/27 01:29:33;;;;;;;10.80;6.03;;;;;;;0.78;83.27;99804.62;1687473;83;21050;-72
2021/04/27 01:32:03;;;;;;;13.93;6.07;;;;;;;0.79;83.38;99803.57;1725700;83;21121;-71
2021/04/27 01:34:41;;;;;;;11.13;6.07;;;;;;;0.80;83.47;99802.55;1701472;81;21035;-69
2021/04/27 01:37:11;;;;;;;11.30;5.57;;;;;;;0.77;83.32;99805.63;1705151;83;21561;-73
2021/04/27 01:39:39;;;;;;;10.10;5.60;;;;;;;0.76;83.42;99803.98;1729273;83;21031;-73
2021/04/27 01:42:07;;;;;;;10.78;5.83;;;;;;;0.75;83.45;99803.66;1741858;81;21104;-73
2021/04/27 01:44:37;;;;;;;10.53;5.10;;;;;;;0.74;83.59;99800.63;1791116;80;21039;-73
2021/04/27 01:47:06;;;;;;;12.33;5.47;;;;;;;0.75;83.57;99803.66;1768729;80;21100;-73
2021/04/27 01:49:35;;;;;;;11.37;5.50;;;;;;;0.73;83.59;99809.25;1764976;81;21123;-73
2021/04/27 01:52:21;;;;;;;11.73;5.60;;;;;;;0.73;83.57;99815.15;1729607;81;21637;-72
2021/04/27 01:54:58;;;;;;;10.33;5.70;;;;;;;0.73;83.60;99817.84;1711386;84;21128;-73
2021/04/27 01:57:26;;;;;;;9.15;5.37;;;;;;;0.72;83.64;99815.66;1729781;81;21257;-75
2021/04/27 01:59:54;;;;;;;11.00;5.53;;;;;;;0.73;83.79;99820.53;1713139;84;21468;-73
2021/04/27 02:02:24;;;;;;;9.70;4.87;;;;;;;0.72;83.83;99828.28;1726515;81;21096;-75
2021/04/27 02:04:55;;;;;;;12.53;6.10;;;;;;;0.71;83.94;99830.68;1664756;84;21016;-73
2021/04/27 02:07:34;;;;;;;11.33;5.90;;;;;;;0.71;83.96;99832.02;1718232;81;21102;-75
2021/04/27 02:10:04;;;;;;;11.40;5.87;;;;;;;0.72;84.09;99830.47;1720042;83;21067;-76
2021/04/27 02:12:32;;;;;;;16.20;6.73;;;;;;;0.73;84.10;99829.97;1719904;81;21054;-75
2021/04/27 02:15:01;;;;;;;9.95;5.72;;;;;;;0.73;84.12;99829.97;1720655;83;21043;-72
2021/04/27 02:17:32;;;;;;;12.05;6.15;;;;;;;0.73;84.10;99831.31;1699203;83;21217;-75
2021/04/27 02:20:01;;;;;;;10.93;6.00;;;;;;;0.72;84.05;99831.81;1725663;83;21019;-75
2021/04/27 02:22:47;;;;;;;11.43;5.93;;;;;;;0.72;84.22;99830.47;1751487;80;21459;-74
2021/04/27 02:25:21;;;;;;;10.50;6.03;;;;;;;0.74;84.38;99832.95;1708151;83;21066;-74
2021/04/27 02:27:52;;;;;;;9.67;5.70;;;;;;;0.76;84.49;99830.92;1704667;81;21180;-71
2021/04/27 02:30:21;;;;;;;13.53;6.30;;;;;;;0.78;84.41;99835.59;1759230;81;21065;-75
2021/04/27 02:32:50;;;;;;;10.77;5.77;;;;;;;0.79;84.49;99835.89;1757540;80;21581;-72
2021/04/27 02:35:20;;;;;;;11.60;6.10;;;;;;;0.82;84.56;99839.55;1759059;81;21017;-75
2021/04/27 02:37:50;;;;;;;11.17;5.83;;;;;;;0.84;84.60;99839.67;1759127;80;21140;-73
2021/04/27 02:40:26;;;;;;;10.47;5.60;;;;;;;0.86;84.38;99838.15;1709611;83;21048;-73
2021/04/27 02:42:59;;;;;;;11.27;6.20;;;;;;;0.86;84.13;99838.15;1731172;83;21031;-77
2021/04/27 02:45:31;;;;;;;9.60;5.87;;;;;;;0.87;84.10;99843.83;1721439;81;21082;-76
2021/04/27 02:48:15;;;;;;;9.83;6.20;;;;;;;0.88;84.12;99838.78;1732185;81;21109;-75
2021/04/27 02:50:46;;;;;;;10.93;6.63;;;;;;;0.90;84.16;99842.09;1735586;81;21070;-74
2021/04/27 02:53:15;;;;;;;15.53;8.10;;;;;;;0.91;84.13;99839.73;1712578;83;21147;-72
2021/04/27 02:55:45;;;;;;;15.37;8.00;;;;;;;0.93;84.01;99842.55;1701526;83;21115;-77
2021/04/27 02:58:13;;;;;;;13.32;7.75;;;;;;;0.94;84.06;99836.12;1759373;80;21199;-74
2021/04/27 03:00:42;;;;;;;16.30;8.63;;;;;;;0.97;83.96;99837.58;1757062;81;21056;-76
2021/04/27 03:03:10;;;;;;;17.62;8.48;;;;;;;1.00;83.84;99837.20;1759597;80;21135;-76
2021/04/27 03:05:38;;;;;;;18.73;8.93;;;;;;;0.99;83.58;99826.92;1746029;81;20996;-75
2021/04/27 03:08:09;;;;;;;17.53;8.17;;;;;;;1.01;83.51;99839.68;1731308;82;21134;-77
2021/04/27 03:10:38;;;;;;;16.95;7.45;;;;;;;1.03;83.59;99844.89;1688441;84;21065;-74
2021/04/27 03:13:05;;;;;;;15.93;8.30;;;;;;;1.05;83.57;99845.52;1731539;82;21084;-78
2021/04/27 03:15:36;;;;;;;14.80;8.10;;;;;;;1.07;83.56;99844.80;1710806;82;21066;-73
2021/04/27 03:18:04;;;;;;;13.90;7.55;;;;;;;1.09;83.71;99841.39;1712533;82;21101;-75
2021/04/27 03:20:32;;;;;;;14.78;8.10;;;;;;;1.12;83.49;99847.73;1726417;81;21450;-75
2021/04/27 03:23:02;;;;;;;15.33;7.67;;;;;;;1.14;83.54;99846.51;1755643;81;21604;-72
2021/04/27 03:25:30;;;;;;;17.23;8.33;;;;;;;1.18;83.39;99851.00;1759191;81;21038;-73
2021/04/27 03:27:59;;;;;;;;;;;;;;;1.22;83.17;99850.91;1760348;81;21573;-73
2021/04/27 03:30:38;;;;;;;17.33;7.83;;;;;;;1.24;83.07;99851.03;1751761;82;20217;-74
2021/04/27 03:33:08;;;;;;;17.40;9.13;;;;;;;1.29;82.99;99848.57;1790324;79;21102;-73
2021/04/27 03:35:36;;;;;;;17.37;8.67;;;;;;;1.34;82.93;99857.44;1767739;80;21069;-72
2021/04/27 03:38:04;;;;;;;14.27;8.33;;;;;;;1.36;82.71;99847.28;1770491;79;21507;-73
2021/04/27 03:40:32;;;;;;;15.55;8.95;;;;;;;1.40;82.56;99847.18;1766138;80;21729;-72
2021/04/27 03:43:00;;;;;;;14.60;7.58;;;;;;;1.45;82.63;99851.97;1764383;80;21591;-75
2021/04/27 03:45:36;;;;;;;14.33;7.73;;;;;;;1.49;82.49;99851.91;1734209;81;21164;-76
2021/04/27 03:48:08;;;;;;;12.90;7.90;;;;;;;1.55;82.68;99854.63;1776313;80;21077;-73
2021/04/27 03:50:39;;;;;;;19.87;8.37;;;;;;;1.61;82.39;99858.39;1791244;80;20987;-77
2021/04/27 03:53:11;;;;;;;14.90;8.33;;;;;;;1.65;82.19;99860.48;1724278;81;21091;-73
2021/04/27 03:55:40;;;;;;;12.00;8.20;;;;;;;1.70;82.21;99863.41;1713172;84;21058;-73
2021/04/27 03:58:08;;;;;;;;;;;;;;;1.76;82.32;99857.73;1730573;81;21059;-76
2021/04/27 04:00:36;;;;;;;12.75;7.20;;;;;;;1.80;81.91;99863.86;1760142;81;20239;-72
2021/04/27 04:03:06;;;;;;;13.73;7.70;;;;;;;1.85;81.79;99868.14;1755154;80;21689;-76
2021/04/27 04:05:34;;;;;;;19.30;8.85;;;;;;;1.92;81.70;99860.89;1712755;83;21102;-78
2021/04/27 04:08:05;;;;;;;13.10;7.70;;;;;;;1.99;81.71;99866.84;1730865;81;21123;-77
2021/04/27 04:10:37;;;;;;;25.23;8.53;;;;;;;2.05;81.35;99863.34;1710842;84;21088;-74
2021/04/27 04:13:05;;;;;;;15.68;8.18;;;;;;;2.12;81.16;99867.72;1762426;80;21608;-74
2021/04/27 04:15:37;;;;;;;12.57;7.00;;;;;;;2.19;80.90;99870.42;1763667;80;21080;-72
2021/04/27 04:18:05;;;;;;;12.80;7.72;;;;;;;2.27;80.27;99869.73;1764946;80;21084;-71
2021/04/27 04:20:34;;;;;;;13.78;7.58;;;;;;;2.37;79.51;99866.63;1717256;82;21017;-72
2021/04/27 04:23:15;;;;;;;15.47;8.60;;;;;;;2.43;79.79;99874.73;1728328;82;21043;-71
2021/04/27 04:25:44;;;;;;;17.60;8.97;;;;;;;2.54;79.86;99876.00;1699768;83;21456;-71
2021/04/27 04:28:13;;;;;;;14.47;8.77;;;;;;;2.64;79.53;99866.13;1712846;83;21222;-72
2021/04/27 04:30:42;;;;;;;16.40;8.93;;;;;;;2.74;78.48;99866.55;1729952;81;21069;-76
2021/04/27 04:33:30;;;;;;;15.55;9.18;;;;;;;2.80;78.73;99876.02;1681221;85;21160;-72
2021/04/27 04:36:16;;;;;;;16.33;9.07;;;;;;;2.91;78.57;99868.62;1686302;85;21147;-72
2021/04/27 04:39:04;;;;;;;15.28;8.55;;;;;;;3.00;78.18;99867.39;1633201;86;21508;-72
2021/04/27 04:41:51;;;;;;;18.30;8.70;;;;;;;3.09;77.15;99866.13;1636416;86;21172;-72
2021/04/27 04:44:38;;;;;;;18.53;8.00;;;;;;;3.19;77.58;99861.63;1716548;81;21016;-74
2021/04/27 04:47:16;;;;;;;;;;;;;;;3.29;76.88;99855.81;1677031;84;21741;-76
2021/04/27 04:50:04;;;;;;;12.20;7.03;;;;;;;3.38;76.60;99853.17;1763992;80;20165;-77
2021/04/27 04:52:51;;;;;;;12.77;7.20;;;;;;;3.46;76.36;99852.95;1698357;83;21144;-72
2021/04/27 04:55:21;;;;;;;14.50;7.70;;;;;;;3.55;75.35;99851.14;1711717;84;21221;-74
2021/04/27 04:57:57;;;;;;;15.40;7.60;;;;;;;3.65;75.27;99857.45;1763950;80;21289;-73
2021/04/27 05:00:27;;;;;;;12.73;6.90;;;;;;;3.74;75.08;99850.78;1761448;80;21080;-76
2021/04/27 05:03:03;;;;;;;13.60;7.03;;;;;;;3.83;73.85;99851.67;1716863;82;21148;-75
2021/04/27 05:05:50;;;;;;;12.47;6.77;;;;;;;3.93;74.08;99851.20;1759553;81;21188;-76
2021/04/27 05:08:44;;;;;;;15.23;7.70;;;;;;;4.04;74.27;99849.70;1649588;86;21088;-77
2021/04/27 05:11:20;;;;;;;13.30;7.27;;;;;;;4.15;73.27;99846.32;1646185;87;21567;-71
2021/04/27 05:13:51;;;;;;;11.97;6.63;;;;;;;4.25;72.58;99842.06;1690242;82;21044;-75
2021/04/27 05:16:19;;;;;;;13.30;6.65;;;;;;;4.35;72.16;99843.77;1768096;80;21100;-71
2021/04/27 05:18:48;;;;;;;10.80;6.03;;;;;;;4.45;71.45;99852.25;1764325;80;21218;-76
2021/04/27 05:21:17;;;;;;;14.30;6.50;;;;;;;4.54;70.97;99843.86;1765016;80;21024;-75
2021/04/27 05:23:46;;;;;;;10.55;5.95;;;;;;;4.62;70.08;99849.02;1727316;81;21076;-74
2021/04/27 05:26:14;;;;;;;11.85;6.05;;;;;;;4.70;70.19;99845.52;1759318;81;20989;-72
2021/04/27 05:28:43;;;;;;;;;;;;;;;4.79;69.05;99847.42;1760902;80;21100;-74
2021/04/27 05:31:11;;;;;;;12.73;6.30;;;;;;;4.86;68.33;99851.73;1759201;81;20217;-72
2021/04/27 05:33:39;;;;;;;22.73;6.83;;;;;;;4.94;67.05;99843.84;1747810;80;21070;-74
2021/04/27 05:36:09;;;;;;;10.40;6.20;;;;;;;5.02;67.35;99842.21;1712669;83;21029;-74
2021/04/27 05:38:38;;;;;;;10.25;6.03;;;;;;;5.10;67.85;99846.00;1729504;81;21092;-75
2021/04/27 05:41:06;;;;;;;14.40;6.20;;;;;;;5.20;67.62;99839.54;1759359;81;21017;-72
2021/04/27 05:43:34;;;;;;;15.58;7.00;;;;;;;5.29;67.86;99842.25;1757594;80;21140;-73
2021/04/27 05:46:02;;;;;;;12.20;5.85;;;;;;;5.38;67.71;99844.16;1712737;83;21023;-72
2021/04/27 05:48:30;;;;;;;13.78;6.28;;;;;;;5.45;67.30;99838.96;1731013;82;21171;-74
2021/04/27 05:50:58;;;;;;;18.98;7.55;;;;;;;5.53;67.51;99852.77;1712366;82;21002;-73
2021/04/27 05:53:28;;;;;;;13.83;6.40;;;;;;;5.56;66.84;99840.10;1727052;83;21558;-74
2021/04/27 05:55:56;;;;;;;15.47;6.17;;;;;;;5.64;66.59;99843.88;1750389;81;21022;-74
2021/04/27 05:58:24;;;;;;;16.15;5.55;;;;;;;5.72;65.92;99841.67;1759178;81;21245;-73
2021/04/27 06:00:54;;;;;;;11.87;5.60;;;;;;;5.82;65.94;99849.83;1716918;83;21030;-71
2021/04/27 06:03:23;;;;;;;11.22;5.08;;;;;;;5.91;64.70;99847.95;1680276;85;21256;-70
2021/04/27 06:05:51;;;;;;;11.30;5.43;;;;;;;5.99;64.39;99841.38;1745641;80;21057;-73
2021/04/27 06:08:18;;;;;;;10.60;5.27;;;;;;;6.07;64.16;99845.15;1759263;80;21175;-70
2021/04/27 06:10:46;;;;;;;8.13;4.20;;;;;;;6.13;62.47;99843.69;1760273;80;21365;-74
2021/04/27 06:13:15;;;;;;;9.35;4.97;;;;;;;6.21;61.87;99843.89;1776070;80;21624;-72
2021/04/27 06:15:44;;;;;;;8.83;4.12;;;;;;;6.26;59.21;99844.87;1783543;80;21057;-71
2021/04/27 06:18:12;;;;;;;10.82;4.55;;;;;;;6.34;57.09;99841.00;1740158;81;21131;-73
2021/04/27 06:20:41;;;;;;;12.78;4.85;;;;;;;6.40;58.23;99842.25;1789347;80;21071;-72
2021/04/27 06:23:08;;;;;;;8.78;4.22;;;;;;;6.49;56.88;99841.92;1735537;80;21123;-76
2021/04/27 06:25:36;;;;;;;8.70;4.08;;;;;;;6.63;56.99;99845.56;1763608;80;21075;-73
2021/04/27 06:28:05;;;;;;;10.28;4.60;;;;;;;6.74;56.25;99847.48;1700086;83;21215;-72
2021/04/27 06:30:34;;;;;;;12.10;4.58;;;;;;;6.79;56.83;99848.98;1713728;84;21065;-75
2021/04/27 06:33:02;;;;;;;9.73;4.35;;;;;;;6.84;55.11;99852.34;1730290;81;21605;-76
2021/04/27 06:35:30;;;;;;;10.03;4.83;;;;;;;6.86;55.95;99851.05;1731440;83;21056;-76
2021/04/27 06:37:58;;;;;;;10.55;4.37;;;;;;;6.94;55.65;99849.35;1712412;82;21139;-78
2021/04/27 06:40:27;;;;;;;9.55;4.17;;;;;;;7.03;56.54;99843.05;1713376;83;21219;-75
2021/04/27 06:42:56;;;;;;;10.68;4.28;;;;;;;7.11;55.85;99852.75;1725286;81;21099;-77
2021/04/27 06:45:27;;;;;;;8.63;3.90;;;;;;;7.16;56.33;99846.07;1720311;83;21075;-71
2021/04/27 06:47:55;;;;;;;8.13;2.95;;;;;;;7.26;54.78;99849.03;1733418;81;21280;-72
2021/04/27 06:50:23;;;;;;;11.28;3.17;;;;;;;7.34;52.26;99845.40;1757575;81;21023;-72
2021/04/27 06:52:53;;;;;;;7.53;3.37;;;;;;;7.41;52.23;99844.73;1721685;81;21241;-72
2021/04/27 06:55:21;;;;;;;6.15;2.85;;;;;;;7.53;51.56;99852.91;1726730;82;21013;-73
2021/04/27 06:57:49;;;;;;;7.85;3.33;;;;;;;7.54;49.34;99850.47;1712134;82;21199;-75
2021/04/27 07:00:17;;;;;;;12.63;3.90;;;;;;;7.49;50.14;99851.71;1731455;82;21016;-73
2021/04/27 07:02:46;;;;;;;7.62;3.62;;;;;;;7.50;51.54;99849.30;1687603;84;21139;-76
2021/04/27 07:05:14;;;;;;;8.85;3.27;;;;;;;7.59;51.11;99847.33;1737139;81;21017;-74
2021/04/27 07:07:42;;;;;;;11.60;3.42;;;;;;;7.69;51.10;99857.61;1740714;81;21142;-72
2021/04/27 07:10:11;;;;;;;7.40;3.33;;;;;;;7.72;50.25;99857.13;1764558;80;21786;-74
2021/04/27 07:12:39;;;;;;;10.70;3.52;;;;;;;7.72;50.27;99852.22;1764914;80;21096;-72
2021/04/27 07:15:08;;;;;;;6.77;2.87;;;;;;;7.69;49.59;99858.97;1717128;83;21536;-72
2021/04/27 07:17:35;;;;;;;8.05;3.22;;;;;;;7.67;48.98;99865.20;1732942;81;22336;-75
2021/04/27 07:20:06;;;;;;;14.60;3.30;;;;;;;7.66;49.11;99862.20;1735877;81;21101;-76
2021/04/27 07:22:35;;;;;;;8.50;3.50;;;;;;;7.68;49.89;99857.33;1717650;82;21670;-75
2021/04/27 07:25:04;;;;;;;8.35;3.60;;;;;;;7.71;48.76;99856.86;1729889;81;21428;-72
2021/04/27 07:27:32;;;;;;;8.13;2.87;;;;;;;7.71;48.19;99858.22;1712199;82;21109;-73
2021/04/27 07:35:05;;;;;;;8.35;2.98;;;;;;;7.71;45.59;99863.67;1826592;77;22838;-72
2021/04/27 07:37:33;;;;;;;6.90;2.95;;;;;;;7.67;45.65;99865.20;1757263;80;21171;-71
2021/04/27 07:40:02;;;;;;;9.28;2.80;;;;;;;7.62;44.29;99870.53;1733362;80;21195;-70
2021/04/27 07:42:30;;;;;;;6.65;2.77;;;;;;;7.61;45.04;99865.61;1747646;81;21227;-74
2021/04/27 07:44:59;;;;;;;6.90;2.72;;;;;;;7.70;45.88;99862.00;1743261;81;21133;-71
2021/04/27 07:47:27;;;;;;;11.57;3.27;;;;;;;7.78;45.23;99857.55;1746448;80;21733;-71
2021/04/27 07:49:55;;;;;;;7.20;2.80;;;;;;;7.81;44.99;99867.97;1742928;80;21184;-77
2021/04/27 07:52:25;;;;;;;8.50;3.35;;;;;;;7.81;45.25;99856.24;1747131;80;21765;-72
2021/04/27 07:54:53;;;;;;;11.88;3.08;;;;;;;7.84;45.19;99841.62;1724236;83;21185;-74
2021/04/27 07:57:21;;;;;;;8.23;2.80;;;;;;;7.90;46.32;99846.08;1718494;81;21123;-71
2021/04/27 07:59:49;;;;;;;7.33;2.90;;;;;;;7.92;45.91;99840.41;1716402;83;21145;-71
2021/04/27 08:02:17;;;;;;;7.67;3.10;;;;;;;7.93;45.79;99850.22;1718095;81;21267;-71
2021/04/27 08:04:46;;;;;;;9.35;2.98;;;;;;;7.91;43.99;99842.30;1693646;83;21664;-71
2021/04/27 08:07:14;;;;;;;11.33;3.35;;;;;;;7.92;44.83;99845.30;1719379;81;21183;-76
2021/04/27 08:09:42;;;;;;;12.40;3.37;;;;;;;7.94;44.60;99844.55;1716583;83;21619;-75
2021/04/27 08:12:11;;;;;;;11.43;3.30;;;;;;;7.98;44.59;99840.27;1685970;83;21132;-72
2021/04/27 08:14:39;;;;;;;;;;;;;;;7.99;42.98;99846.55;1689439;83;21621;-71
2021/04/27 08:17:08;;;;;;;9.10;3.17;;;;;;;8.03;43.73;99839.53;1687933;82;20167;-77
2021/04/27 08:19:38;;;;;;;9.68;3.15;;;;;;;8.08;44.48;99843.19;1701475;84;21263;-75
2021/04/27 08:22:06;;;;;;;6.85;3.05;;;;;;;8.16;43.50;99844.17;1694289;84;21204;-72
2021/04/27 08:24:35;;;;;;;9.03;3.00;;;;;;;8.25;42.70;99845.43;1722933;82;21230;-72
2021/04/27 08:27:05;;;;;;;7.05;2.75;;;;;;;8.37;43.05;99833.69;1705532;83;21751;-73
2021/04/27 08:29:35;;;;;;;6.42;2.65;;;;;;;8.43;42.82;99825.87;1692690;83;21608;-71
2021/04/27 08:32:04;;;;;;;6.17;2.80;;;;;;;8.52;43.55;99820.33;1694999;83;21254;-75
2021/04/27 08:34:32;;;;;;;6.65;2.55;;;;;;;8.61;42.58;99820.20;1719062;81;21159;-76
2021/04/27 08:37:00;;;;;;;6.37;2.70;;;;;;;8.71;42.89;99818.48;1693665;83;21229;-75
2021/04/27 08:39:28;;;;;;;6.05;2.70;;;;;;;8.86;41.29;99813.81;1696324;82;21143;-76
2021/04/27 08:41:56;;;;;;;5.87;2.15;;;;;;;9.02;40.55;99813.52;1676772;83;21223;-76
2021/04/27 08:44:26;;;;;;;5.75;2.50;;;;;;;9.10;39.30;99812.58;1681077;84;21650;-74
2021/04/27 08:46:54;;;;;;;9.05;3.05;;;;;;;9.09;39.58;99806.81;1688825;84;21165;-79
2021/04/27 08:49:23;;;;;;;9.48;2.70;;;;;;;9.12;40.02;99810.42;1686013;83;21275;-77
2021/04/27 08:51:52;;;;;;;6.67;2.50;;;;;;;9.15;40.31;99807.73;1727217;82;21706;-76
2021/04/27 08:54:21;;;;;;;8.30;2.85;;;;;;;9.18;40.56;99809.43;1720038;82;21636;-77
2021/04/27 08:56:49;;;;;;;8.23;2.42;;;;;;;9.22;39.79;99805.64;1716610;82;21152;-78
2021/04/27 08:59:20;;;;;;;8.23;2.67;;;;;;;9.23;38.16;99802.68;1716015;82;21695;-74
2021/04/27 09:01:48;;;;;;;7.30;2.60;;;;;;;9.24;39.17;99795.29;1663306;84;21190;-76
2021/04/27 09:04:45;;;;;;;8.28;2.70;;;;;;;9.28;38.96;99799.19;1682905;83;21252;-76
2021/04/27 09:07:15;;;;;;;6.87;2.83;;;;;;;9.30;39.58;99799.76;1702469;82;21362;-77
2021/04/27 09:09:52;;;;;;;10.28;3.75;;;;;;;9.31;38.03;99795.96;1675925;82;21140;-79
2021/04/27 09:12:27;;;;;;;9.73;3.00;;;;;;;9.36;39.47;99798.20;1697226;83;21141;-76
2021/04/27 09:14:59;;;;;;;9.78;3.20;;;;;;;9.37;38.12;99797.14;1701502;82;21805;-75
2021/04/27 09:17:29;;;;;;;7.87;2.90;;;;;;;9.34;40.17;99799.00;1699338;83;21267;-76
2021/04/27 09:19:59;;;;;;;11.75;2.90;;;;;;;9.47;39.04;99809.57;1672367;83;21173;-76
2021/04/27 09:22:33;;;;;;;14.70;3.15;;;;;;;9.57;38.48;99804.77;1697710;82;21257;-75
2021/04/27 09:25:09;;;;;;;8.93;3.10;;;;;;;9.64;37.76;99805.98;1705107;82;21192;-77
2021/04/27 09:27:50;;;;;;;6.97;2.60;;;;;;;9.75;38.41;99803.64;1697700;82;21347;-77
2021/04/27 09:30:28;;;;;;;6.67;2.52;;;;;;;9.94;37.61;99806.36;1702125;83;21151;-78
2021/04/27 09:33:06;;;;;;;6.28;2.60;;;;;;;10.11;38.65;99791.52;1675704;84;21117;-78
2021/04/27 09:35:43;;;;;;;6.60;2.80;;;;;;;10.20;39.25;99791.91;1697011;83;21757;-80
2021/04/27 09:38:20;;;;;;;6.20;3.10;;;;;;;10.28;38.13;99799.66;1713153;81;21149;-79
2021/04/27 09:41:05;;;;;;;10.53;2.83;;;;;;;10.33;39.09;99788.77;1709158;83;21587;-77
2021/04/27 09:43:42;;;;;;;10.38;3.00;;;;;;;10.36;38.55;99780.58;1710009;81;21192;-80
2021/04/27 09:46:16;;;;;;;11.80;2.95;;;;;;;10.41;38.40;99786.11;1686489;82;21179;-76
2021/04/27 09:48:52;;;;;;;9.75;2.80;;;;;;;10.44;37.50;99789.70;1717547;81;21413;-77
2021/04/27 09:51:34;;;;;;;5.92;2.92;;;;;;;10.49;38.06;99785.64;1707348;82;21146;-78
2021/04/27 09:54:07;;;;;;;7.67;2.70;;;;;;;10.63;37.49;99782.21;1710699;81;21140;-72
2021/04/27 09:56:51;;;;;;;13.30;3.20;;;;;;;10.60;37.02;99783.30;1693789;83;21219;-73
2021/04/27 09:59:31;;;;;;;5.87;2.90;;;;;;;10.64;37.66;99790.72;1716035;81;21159;-73
2021/04/27 10:02:05;;;;;;;13.60;2.92;;;;;;;10.58;36.61;99783.53;1694912;83;21271;-78
2021/04/27 10:04:34;;;;;;;9.20;3.20;;;;;;;10.54;37.50;99778.84;1693467;83;21714;-81
2021/04/27 10:07:13;;;;;;;10.65;2.92;;;;;;;10.60;37.56;99792.88;1669571;84;21184;-81
2021/04/27 10:09:47;;;;;;;8.03;3.02;;;;;;;10.54;37.51;99796.09;1702552;82;21410;-80
2021/04/27 10:12:17;;;;;;;7.62;2.72;;;;;;;10.42;39.18;99815.95;1697297;82;21294;-79
2021/04/27 10:14:46;;;;;;;6.35;2.87;;;;;;;9.89;40.98;99815.86;1694738;82;21291;-73
2021/04/27 10:17:17;;;;;;;;;;;;;;;9.33;43.54;99827.94;1689875;82;21150;-74
2021/04/27 10:19:47;;;;;;;8.83;3.55;;;;;;;9.11;45.59;99827.06;1689023;82;20183;-77
2021/04/27 10:22:16;;;;;;;9.03;3.37;;;;;;;8.88;47.99;99818.48;1694045;82;21153;-78
2021/04/27 10:24:45;;;;;;;9.73;3.35;;;;;;;8.58;50.10;99819.33;1702571;82;21176;-74
2021/04/27 10:27:14;;;;;;;10.28;3.55;;;;;;;8.61;49.38;99809.29;1690849;82;21173;-83
2021/04/27 10:29:44;;;;;;;8.83;3.45;;;;;;;8.65;49.26;99796.83;1691988;82;21191;-79
2021/04/27 10:32:24;;;;;;;7.42;3.35;;;;;;;8.75;48.52;99792.91;1667056;84;21174;-80
2021/04/27 10:35:04;;;;;;;6.28;3.00;;;;;;;8.87;47.96;99795.02;1696212;82;21185;-75
2021/04/27 10:38:11;;;;;;;8.08;3.02;;;;;;;8.98;48.14;99781.80;1697343;82;21164;-75
2021/04/27 10:41:03;;;;;;;6.60;3.05;;;;;;;9.18;47.25;99791.69;1695866;82;21149;-75
2021/04/27 10:43:38;;;;;;;7.95;3.10;;;;;;;9.42;46.56;99787.64;1697161;83;21648;-75
2021/04/27 10:46:10;;;;;;;6.08;2.85;;;;;;;9.62;44.87;99778.89;1697561;82;21505;-75
2021/04/27 10:48:41;;;;;;;6.15;2.52;;;;;;;9.75;41.93;99781.24;1692323;84;21144;-81
2021/04/27 10:51:28;;;;;;;7.47;3.05;;;;;;;9.82;42.34;99770.94;1691984;82;21675;-78
2021/04/27 10:54:19;;;;;;;10.95;2.72;;;;;;;9.93;39.94;99773.25;1696555;83;21757;-78
2021/04/27 10:56:53;;;;;;;11.57;3.20;;;;;;;10.04;38.95;99771.73;1693177;83;21220;-77
2021/04/27 10:59:27;;;;;;;15.80;2.90;;;;;;;10.11;38.39;99761.45;1693969;83;21293;-78
2021/04/27 11:02:19;;;;;;;5.65;2.47;;;;;;;10.09;38.90;99758.69;1711104;81;21625;-73
2021/04/27 11:04:58;;;;;;;8.08;3.02;;;;;;;9.98;39.01;99761.01;1706998;82;21198;-76
2021/04/27 11:07:31;;;;;;;8.60;3.20;;;;;;;9.92;38.96;99760.13;1648103;83;21180;-75
2021/04/27 11:10:06;;;;;;;6.45;3.00;;;;;;;9.89;39.49;99768.83;1667129;84;21137;-77
2021/04/27 11:12:46;;;;;;;8.30;3.05;;;;;;;9.71;40.23;99786.11;1699585;82;21266;-75
2021/04/27 11:15:25;;;;;;;8.70;3.33;;;;;;;9.53;41.39;99784.52;1693454;83;21593;-77
2021/04/27 11:18:17;;;;;;;16.75;3.65;;;;;;;9.30;42.26;99792.40;1696895;82;21508;-76
2021/04/27 11:21:07;;;;;;;10.85;3.55;;;;;;;9.01;43.94;99800.41;1700493;83;21120;-78
2021/04/27 11:23:56;;;;;;;11.60;3.47;;;;;;;8.74;45.46;99803.52;1696530;83;21152;-87
2021/04/27 11:26:38;;;;;;;10.80;3.22;;;;;;;8.53;46.29;99810.52;1709879;83;21160;-77
2021/04/27 11:29:22;;;;;;;10.18;3.72;;;;;;;8.35;47.17;99793.57;1709729;81;21475;-78
2021/04/27 11:32:09;;;;;;;8.35;3.40;;;;;;;8.41;47.49;99789.84;1711378;82;21149;-76
2021/04/27 11:34:56;;;;;;;9.23;3.30;;;;;;;8.47;47.39;99784.25;1712084;83;21741;-76
2021/04/27 11:37:52;;;;;;;8.93;3.30;;;;;;;8.61;45.57;99774.66;1710690;81;21618;-80
2021/04/27 11:40:38;;;;;;;8.08;2.90;;;;;;;8.73;45.15;99784.12;1698614;83;21145;-78
2021/04/27 11:43:10;;;;;;;8.20;2.98;;;;;;;8.99;44.96;99778.53;1699640;82;21305;-77
2021/04/27 11:45:48;;;;;;;7.40;3.12;;;;;;;9.22;44.98;99775.08;1704666;83;21109;-79
2021/04/27 11:48:20;;;;;;;7.90;2.85;;;;;;;9.48;44.66;99778.98;1705289;82;21175;-80
2021/04/27 11:50:50;;;;;;;9.68;3.10;;;;;;;9.63;44.25;99768.79;1704274;83;21129;-78
2021/04/27 11:53:24;;;;;;;11.53;3.40;;;;;;;9.73;44.19;99777.95;1701115;82;21647;-84
2021/04/27 11:55:56;;;;;;;7.90;3.15;;;;;;;9.64;43.99;99767.72;1687733;83;21153;-83
2021/04/27 11:58:32;;;;;;;11.33;3.02;;;;;;;9.68;45.41;99762.02;1717583;83;21646;-78
2021/04/27 12:01:07;;;;;;;8.03;3.35;;;;;;;9.84;44.73;99765.23;1709065;82;21406;-82
2021/04/27 12:03:44;;;;;;;8.60;3.12;;;;;;;9.97;43.55;99769.75;1723212;82;21716;-82
2021/04/27 12:06:17;;;;;;;10.45;3.75;;;;;;;9.98;43.91;99763.21;1689332;82;21539;-81
2021/04/27 12:08:52;;;;;;;24.02;5.40;;;;;;;10.02;43.53;99761.60;1709030;80;21194;-82